Time;durP1;ratioP1;P1;durP2;ratioP2;P2;SDS_P1;SDS_P2;PMS_P1;PMS_P2;Temp;Humidity;BMP_temperature;BMP_pressure;BME280_temperature;BME280_humidity;BME280_pressure;Samples;Min_cycle;Max_cycle;Signal;HPM_P1;HPM_P2
2021/06/23 00:01:50;;;;;;;;;6.00;6.00;;;;;26.10;67.99;100806.63;5133671;27;8835;-76
2021/06/23 00:04:45;;;;;;;;;7.60;7.60;;;;;26.23;67.71;100799.09;5134098;27;8827;-77
2021/06/23 00:07:41;;;;;;;;;7.80;7.00;;;;;26.11;67.82;100798.91;5134018;27;8831;-76
2021/06/23 00:10:37;;;;;;;;;8.60;8.60;;;;;26.10;67.76;100798.13;5133700;27;8877;-77
2021/06/23 00:13:05;;;;;;;;;6.00;6.00;;;;;25.93;68.29;100794.41;5135252;27;8835;-77
2021/06/23 00:16:05;;;;;;;;;8.60;8.60;;;;;26.15;68.01;100796.81;5134963;27;8835;-77
2021/06/23 00:19:01;;;;;;;;;6.60;6.60;;;;;26.40;66.95;100797.13;5152862;27;8821;-77
2021/06/23 00:21:58;;;;;;;;;9.20;9.20;;;;;26.52;66.28;100792.81;5140749;27;8849;-77
2021/06/23 00:24:53;;;;;;;;;7.60;7.60;;;;;26.31;67.18;100772.19;5152745;27;8963;-77
2021/06/23 00:27:35;;;;;;;;;5.80;5.80;;;;;26.02;68.81;100782.50;5137639;27;8913;-77
2021/06/23 00:30:30;;;;;;;;;5.80;5.80;;;;;26.00;68.53;100799.16;5154350;27;8921;-77
2021/06/23 00:33:31;;;;;;;;;9.60;7.80;;;;;26.00;69.14;100794.28;5138258;27;8820;-77
2021/06/23 00:36:27;;;;;;;;;7.60;7.60;;;;;25.77;69.32;100783.78;5133533;27;8908;-77
2021/06/23 00:39:23;;;;;;;;;8.20;8.20;;;;;25.28;72.02;100779.75;5119931;27;8834;-77
2021/06/23 00:42:19;;;;;;;;;6.20;6.20;;;;;25.29;71.73;100775.69;5134480;27;9572;-76
2021/06/23 00:45:15;;;;;;;;;8.80;8.80;;;;;25.53;70.85;100787.81;5133146;27;8854;-76
2021/06/23 00:48:22;;;;;;;;;9.20;9.20;;;;;25.61;70.60;100788.50;5133264;27;8926;-76
2021/06/23 00:51:17;;;;;;;;;25.00;24.80;;;;;25.65;70.23;100789.25;5133041;27;8842;-76
2021/06/23 00:54:14;;;;;;;;;46.50;37.25;;;;;25.61;70.10;100789.31;5132987;27;8936;-76
2021/06/23 00:56:42;;;;;;;;;39.50;35.00;;;;;25.56;70.56;100789.81;5133868;27;8819;-76
2021/06/23 00:59:38;;;;;;;;;18.50;16.50;;;;;25.38;70.42;100797.78;5132899;27;8843;-76
2021/06/23 01:02:06;;;;;;;;;28.00;26.75;;;;;25.41;70.86;100794.91;5145501;27;9538;-76
2021/06/23 01:04:34;;;;;;;;;20.00;20.00;;;;;25.52;70.70;100806.84;5154580;27;8860;-76
2021/06/23 01:07:30;;;;;;;;;21.80;21.80;;;;;25.66;69.96;100802.97;5154238;27;8849;-75
2021/06/23 01:10:32;;;;;;;;;18.20;16.60;;;;;25.53;70.25;100804.81;5153541;27;8836;-75
2021/06/23 01:13:27;;;;;;;;;9.60;9.60;;;;;25.26;71.49;100796.38;5153712;27;8864;-75
2021/06/23 01:16:25;;;;;;;;;15.40;15.00;;;;;25.45;70.72;100809.00;5140956;27;8855;-76
2021/06/23 01:19:24;;;;;;;;;18.20;16.00;;;;;25.68;69.27;100800.50;5132746;27;9577;-75
2021/06/23 01:22:20;;;;;;;;;13.80;13.60;;;;;25.61;69.43;100805.47;5134335;27;8875;-75
2021/06/23 01:25:16;;;;;;;;;12.00;11.80;;;;;25.55;70.02;100827.84;5153539;27;9554;-75
2021/06/23 01:28:12;;;;;;;;;17.20;17.00;;;;;25.62;69.93;100833.38;5153371;27;8856;-75
2021/06/23 01:31:08;;;;;;;;;14.40;13.80;;;;;25.54;69.74;100842.44;5153395;27;8837;-75
2021/06/23 01:34:03;;;;;;;;;10.60;10.60;;;;;25.58;69.57;100843.97;5153363;27;8821;-75
2021/06/23 01:36:59;;;;;;;;;10.80;10.80;;;;;25.47;69.96;100849.03;5139656;27;8913;-75
2021/06/23 01:39:55;;;;;;;;;14.20;14.20;;;;;25.51;69.69;100859.03;5153220;27;8825;-76
2021/06/23 01:42:50;;;;;;;;;10.60;10.60;;;;;25.34;70.28;100845.97;5153437;27;8825;-75
2021/06/23 01:45:46;;;;;;;;;10.20;10.20;;;;;25.26;70.99;100838.03;5149516;27;8827;-76
2021/06/23 01:48:42;;;;;;;;;4.20;4.20;;;;;25.35;70.20;100830.59;5132643;27;8949;-76
2021/06/23 01:51:38;;;;;;;;;9.60;9.60;;;;;25.14;70.91;100845.06;5119132;27;9619;-76
2021/06/23 01:54:27;;;;;;;;;8.00;8.00;;;;;25.08;71.18;100856.09;5133575;27;8811;-76
2021/06/23 01:57:23;;;;;;;;;10.00;10.00;;;;;25.01;71.49;100850.50;5132371;27;8873;-75
2021/06/23 02:00:19;;;;;;;;;5.40;5.40;;;;;25.18;70.91;100860.78;5132479;27;8835;-75
2021/06/23 02:03:17;;;;;;;;;14.00;14.00;;;;;25.16;70.76;100860.41;5133281;27;8819;-75
2021/06/23 02:06:52;;;;;;;;;10.20;10.20;;;;;25.10;70.75;100862.13;5132692;27;8823;-75
2021/06/23 02:09:54;;;;;;;;;11.60;11.00;;;;;25.02;71.28;100863.41;5132565;27;8850;-75
2021/06/23 02:13:12;;;;;;;;;10.80;10.80;;;;;24.76;72.50;100855.69;5132448;27;8958;-76
2021/06/23 02:16:12;;;;;;;;;10.60;10.60;;;;;24.93;72.40;100855.47;5140755;27;9660;-75
2021/06/23 02:19:08;;;;;;;;;11.60;10.80;;;;;24.95;71.93;100864.31;5156802;27;8817;-75
2021/06/23 02:22:04;;;;;;;;;29.25;29.25;;;;;24.92;72.61;100847.38;5156355;27;8849;-76
2021/06/23 02:25:10;;;;;;;;;34.00;32.25;;;;;24.92;72.64;100845.38;5157275;27;8829;-76
2021/06/23 02:27:40;;;;;;;;;33.50;31.75;;;;;24.94;72.57;100842.13;5158140;27;8855;-76
2021/06/23 02:30:39;;;;;;;;;26.25;26.25;;;;;25.22;71.50;100838.06;5156610;27;8836;-76
2021/06/23 02:33:34;;;;;;;;;27.25;24.00;;;;;25.06;72.19;100852.06;5156587;27;8817;-76
2021/06/23 02:36:30;;;;;;;;;15.40;15.40;;;;;25.20;71.54;100840.53;5153664;27;8860;-77
2021/06/23 02:39:00;;;;;;;;;15.60;14.60;;;;;25.19;71.69;100847.44;5136784;27;8847;-77
2021/06/23 02:41:55;;;;;;;;;12.60;11.60;;;;;25.33;71.15;100874.72;5135535;27;8857;-78
2021/06/23 02:44:51;;;;;;;;;10.60;10.60;;;;;25.34;71.46;100879.16;5135854;27;8842;-77
2021/06/23 02:47:47;;;;;;;;;16.40;16.00;;;;;25.31;72.62;100880.81;5136461;27;8827;-78
2021/06/23 02:50:57;;;;;;;;;19.40;19.40;;;;;25.29;73.74;100888.91;5136399;27;8820;-77
2021/06/23 02:53:55;;;;;;;;;17.00;15.20;;;;;25.36;72.72;100890.84;5135519;27;8839;-77
2021/06/23 02:56:51;;;;;;;;;16.00;16.00;;;;;25.63;71.00;100894.47;5135583;27;8815;-77
2021/06/23 02:59:50;;;;;;;;;18.80;17.40;;;;;25.66;71.55;100904.91;5135566;27;8833;-77
2021/06/23 03:02:46;;;;;;;;;20.00;17.60;;;;;25.61;74.19;100915.91;5135335;27;8823;-77
2021/06/23 03:05:41;;;;;;;;;14.60;14.40;;;;;25.60;73.63;100917.97;5135192;27;8865;-77
2021/06/23 03:08:38;;;;;;;;;19.40;17.20;;;;;25.66;72.50;100916.25;5135326;27;8829;-77
2021/06/23 03:11:38;;;;;;;;;16.20;15.40;;;;;25.58;75.23;100928.13;5135584;27;8839;-77
2021/06/23 03:14:34;;;;;;;;;15.60;14.20;;;;;25.38;76.52;100930.84;5135207;27;8943;-77
2021/06/23 03:17:30;;;;;;;;;16.00;15.40;;;;;25.40;75.95;100925.56;5135097;27;8843;-78
2021/06/23 03:20:25;;;;;;;;;18.60;18.00;;;;;25.37;74.00;100932.06;5135733;27;8843;-78
2021/06/23 03:23:21;;;;;;;;;20.60;19.40;;;;;25.39;75.37;100924.78;5135058;27;8948;-77
2021/06/23 03:26:17;;;;;;;;;21.20;19.20;;;;;25.52;74.09;100927.78;5134640;27;8819;-77
2021/06/23 03:29:33;;;;;;;;;20.60;17.60;;;;;25.52;74.89;100930.63;5135974;27;8856;-77
2021/06/23 03:32:28;;;;;;;;;20.80;19.00;;;;;25.56;74.62;100933.41;5121270;27;8831;-77
2021/06/23 03:35:26;;;;;;;;;13.20;13.20;;;;;25.64;74.09;100926.41;5121311;27;8843;-77
2021/06/23 03:38:21;;;;;;;;;11.80;8.80;;;;;25.61;74.67;100928.06;5134659;27;8842;-77
2021/06/23 03:41:17;;;;;;;;;16.40;16.20;;;;;25.82;72.99;100928.97;5135109;27;8835;-78
2021/06/23 03:44:13;;;;;;;;;14.40;13.60;;;;;25.63;73.45;100931.28;5121847;27;8823;-77
2021/06/23 03:47:08;;;;;;;;;19.40;16.00;;;;;25.72;72.57;100925.91;5120731;27;8895;-77
2021/06/23 03:49:50;;;;;;;;;16.60;15.00;;;;;25.75;72.67;100933.53;5135660;27;8912;-78
2021/06/23 03:52:47;;;;;;;;;17.00;15.80;;;;;25.70;72.58;100936.03;5120768;27;8944;-77
2021/06/23 03:55:44;;;;;;;;;15.40;14.80;;;;;25.76;70.91;100949.31;5134536;27;8953;-77
2021/06/23 03:58:42;;;;;;;;;19.60;17.80;;;;;25.85;70.86;100950.78;5134080;27;9002;-77
2021/06/23 04:01:37;;;;;;;;;16.60;16.60;;;;;25.82;71.34;100948.81;5134054;27;8887;-77
2021/06/23 04:04:33;;;;;;;;;14.60;14.20;;;;;26.01;70.41;100962.25;5134342;27;8975;-77
2021/06/23 04:07:29;;;;;;;;;14.80;14.60;;;;;25.99;71.57;100971.19;5134150;27;8955;-77
2021/06/23 04:10:24;;;;;;;;;22.20;17.80;;;;;26.04;70.40;100967.06;5133967;27;8843;-77
2021/06/23 04:13:20;;;;;;;;;16.00;13.80;;;;;26.08;70.36;100973.47;5134046;27;8823;-77
2021/06/23 04:16:15;;;;;;;;;16.80;13.80;;;;;26.13;69.51;100972.97;5133881;27;8824;-77
2021/06/23 04:18:43;;;;;;;;;22.80;17.00;;;;;26.18;70.16;100975.31;5135108;27;8858;-77
2021/06/23 04:21:39;;;;;;;;;19.00;17.20;;;;;26.33;69.51;100973.84;5133771;27;8903;-77
2021/06/23 04:24:34;;;;;;;;;18.00;15.40;;;;;26.40;68.79;100978.59;5133969;27;8942;-77
2021/06/23 04:27:30;;;;;;;;;10.60;10.60;;;;;26.35;68.82;100993.25;5133762;27;8823;-77
2021/06/23 04:30:26;;;;;;;;;12.60;10.40;;;;;26.46;68.14;100998.75;5134262;27;8830;-77
2021/06/23 04:33:21;;;;;;;;;12.00;11.60;;;;;26.53;68.36;101001.44;5126946;27;8829;-77
2021/06/23 04:36:17;;;;;;;;;18.40;13.20;;;;;26.58;67.95;101015.13;5152746;27;8817;-78
2021/06/23 04:39:12;;;;;;;;;15.80;12.20;;;;;26.45;68.57;101028.34;5133561;27;8835;-77
2021/06/23 04:42:08;;;;;;;;;13.00;13.00;;;;;26.63;68.22;101036.53;5133726;27;8858;-77
2021/06/23 04:45:09;;;;;;;;;19.60;13.20;;;;;26.68;66.87;101036.81;5133430;27;8934;-78
2021/06/23 04:48:06;;;;;;;;;18.80;14.60;;;;;26.91;66.63;101044.50;5135243;27;8950;-78
2021/06/23 04:51:02;;;;;;;;;15.20;14.00;;;;;26.78;65.95;101054.91;5154050;27;8871;-78
2021/06/23 04:53:57;;;;;;;;;16.20;13.80;;;;;26.89;65.98;101058.31;5137293;27;8823;-78
2021/06/23 04:56:56;;;;;;;;;15.40;12.60;;;;;27.09;65.20;101064.06;5133134;27;8990;-78
2021/06/23 04:59:51;;;;;;;;;10.60;9.80;;;;;27.19;64.10;101067.91;5133100;27;8835;-78
2021/06/23 05:02:47;;;;;;;;;17.60;11.20;;;;;27.34;63.59;101074.91;5133267;27;8839;-78
2021/06/23 05:05:42;;;;;;;;;15.40;11.80;;;;;27.37;62.18;101068.34;5132444;27;8960;-78
2021/06/23 05:08:38;;;;;;;;;13.80;10.80;;;;;27.50;62.23;101065.63;5151338;27;8828;-78
2021/06/23 05:11:34;;;;;;;;;16.20;11.60;;;;;27.64;62.50;101073.84;5133074;27;8855;-78
2021/06/23 05:14:29;;;;;;;;;9.40;9.40;;;;;27.47;62.10;101078.69;5132987;27;8824;-77
2021/06/23 05:17:26;;;;;;;;;14.40;10.00;;;;;27.47;62.29;101077.91;5132838;27;8812;-77
2021/06/23 05:20:21;;;;;;;;;11.40;10.80;;;;;27.59;62.94;101080.03;5118965;27;8835;-78
2021/06/23 05:23:17;;;;;;;;;24.40;23.80;;;;;27.56;62.47;101072.41;5132753;27;8843;-77
2021/06/23 05:26:13;;;;;;;;;8.60;8.60;;;;;27.50;61.30;101086.31;5133189;27;8819;-77
2021/06/23 05:29:09;;;;;;;;;7.80;7.80;;;;;27.40;61.77;101081.69;5132785;27;8857;-78
2021/06/23 05:32:05;;;;;;;;;11.20;11.20;;;;;27.44;62.07;101088.06;5119200;27;8839;-78
2021/06/23 05:35:00;;;;;;;;;7.20;7.20;;;;;27.18;60.28;101087.00;5132543;27;8820;-80
2021/06/23 05:37:56;;;;;;;;;30.20;29.00;;;;;27.34;61.54;101083.41;5132595;27;8870;-78
2021/06/23 05:40:52;;;;;;;;;15.00;14.80;;;;;27.19;61.40;101085.75;5132818;27;8927;-78
2021/06/23 05:43:47;;;;;;;;;6.20;6.20;;;;;27.35;60.78;101077.31;5132698;27;8815;-77
2021/06/23 05:46:43;;;;;;;;;10.00;10.00;;;;;27.25;60.32;101084.00;5130457;27;8939;-78
2021/06/23 05:49:38;;;;;;;;;9.20;9.20;;;;;27.08;62.42;101082.34;5140675;27;8834;-77
2021/06/23 05:52:34;;;;;;;;;8.80;7.80;;;;;27.48;61.23;101070.97;5134898;27;8832;-78
2021/06/23 05:55:30;;;;;;;;;10.80;10.20;;;;;27.79;61.00;101078.00;5136705;27;8819;-78
2021/06/23 05:58:26;;;;;;;;;10.20;10.20;;;;;28.09;59.64;101079.75;5136268;27;8862;-77
2021/06/23 06:01:22;;;;;;;;;9.40;9.00;;;;;28.23;58.44;101087.16;5136049;27;9596;-78
2021/06/23 06:04:18;;;;;;;;;10.60;10.00;;;;;28.29;58.28;101093.09;5135837;27;8929;-78
2021/06/23 06:07:13;;;;;;;;;7.20;7.20;;;;;28.08;58.14;101100.09;5145351;27;8856;-79
2021/06/23 06:10:11;;;;;;;;;9.00;8.60;;;;;27.70;59.51;101092.81;5152145;27;8823;-79
2021/06/23 06:13:07;;;;;;;;;11.40;7.40;;;;;27.94;57.62;101102.03;5140169;27;8840;-78
2021/06/23 06:16:03;;;;;;;;;10.00;8.00;;;;;27.83;58.50;101104.28;5150435;27;8828;-80
2021/06/23 06:18:59;;;;;;;;;8.40;7.80;;;;;27.86;58.83;101096.94;5126780;27;8842;-80
2021/06/23 06:21:55;;;;;;;;;6.00;5.80;;;;;28.11;57.66;101100.00;5137214;27;8901;-78
2021/06/23 06:24:50;;;;;;;;;9.40;8.40;;;;;27.85;56.97;101109.56;5135742;27;8950;-79
2021/06/23 06:27:46;;;;;;;;;6.00;6.00;;;;;27.94;56.77;101115.44;5146886;27;8829;-86
2021/06/23 06:30:41;;;;;;;;;7.00;5.80;;;;;27.79;56.97;101123.47;5143189;27;8837;-85
2021/06/23 06:33:37;;;;;;;;;9.40;9.20;;;;;27.92;57.70;101123.63;5143353;27;8805;-80
2021/06/23 06:36:33;;;;;;;;;6.80;6.00;;;;;28.01;56.00;101128.69;5156890;27;8853;-84
2021/06/23 06:39:28;;;;;;;;;12.20;10.20;;;;;28.14;56.31;101138.13;5142679;27;8817;-84
2021/06/23 06:42:24;;;;;;;;;7.40;6.00;;;;;27.94;56.34;101130.44;5156252;27;8936;-84
2021/06/23 06:44:52;;;;;;;;;12.20;10.00;;;;;28.21;56.56;101132.25;5138667;27;8898;-80
2021/06/23 06:47:20;;;;;;;;;12.00;11.20;;;;;27.90;57.32;101137.44;5157233;27;8825;-84
2021/06/23 06:49:48;;;;;;;;;8.00;7.80;;;;;28.36;57.20;101122.19;5157173;27;8860;-78
2021/06/23 06:52:16;;;;;;;;;10.80;9.40;;;;;27.99;57.77;101126.31;5121940;27;8845;-82
2021/06/23 06:54:44;;;;;;;;;17.80;10.00;;;;;28.31;57.51;101128.41;5139193;27;8853;-80
2021/06/23 06:57:13;;;;;;;;;9.20;8.40;;;;;28.72;56.71;101129.84;5139308;27;8849;-80
2021/06/23 06:59:43;;;;;;;;;12.00;11.00;;;;;28.73;56.14;101135.06;5139717;27;8938;-85
2021/06/23 07:02:11;;;;;;;;;8.80;7.20;;;;;28.64;56.90;101132.06;5157479;27;8833;-82
2021/06/23 07:04:38;;;;;;;;;10.80;9.40;;;;;29.01;56.55;101135.63;5156845;27;8852;-80
2021/06/23 07:07:06;;;;;;;;;11.20;10.40;;;;;28.64;58.00;101131.25;5157212;27;9056;-83
2021/06/23 07:09:35;;;;;;;;;9.80;7.60;;;;;28.91;57.08;101126.13;5139303;27;8821;-80
2021/06/23 07:12:03;;;;;;;;;10.40;8.80;;;;;28.61;58.17;101115.09;5157301;27;8829;-85
2021/06/23 07:14:32;;;;;;;;;9.20;9.00;;;;;28.73;58.23;101117.19;5139128;27;8909;-83
2021/06/23 07:17:00;;;;;;;;;7.60;7.60;;;;;28.90;57.27;101115.13;5156910;27;8821;-86
2021/06/23 07:19:28;;;;;;;;;10.00;8.80;;;;;29.00;56.55;101117.72;5157492;27;8844;-83
2021/06/23 07:21:55;;;;;;;;;12.40;12.00;;;;;29.04;57.13;101112.72;5138364;27;8917;-81
2021/06/23 07:24:23;;;;;;;;;15.60;11.60;;;;;29.13;56.60;101111.28;5138578;27;8857;-82
2021/06/23 07:26:58;;;;;;;;;14.60;13.60;;;;;28.97;57.69;101106.44;5138496;27;8869;-79
2021/06/23 07:29:27;;;;;;;;;9.80;8.20;;;;;29.28;57.11;101110.44;5156903;27;8833;-79
2021/06/23 07:37:01;;;;;;;;;8.40;8.40;;;;;29.16;58.03;101093.31;5157198;27;8845;-84
2021/06/23 07:39:32;;;;;;;;;13.60;13.60;;;;;29.16;58.05;101090.47;5139021;27;8837;-83
2021/06/23 07:42:05;;;;;;;;;13.20;12.20;;;;;29.30;57.94;101090.06;5138822;27;9570;-83
2021/06/23 07:44:39;;;;;;;;;13.60;10.40;;;;;29.58;56.92;101082.75;5139687;27;8891;-83
2021/06/23 07:47:12;;;;;;;;;12.20;11.80;;;;;29.60;57.47;101101.00;5155966;27;8848;-86
2021/06/23 07:49:42;;;;;;;;;14.20;13.60;;;;;29.17;58.46;101112.78;5156760;27;8837;-85
2021/06/23 08:08:56;;;;;;;;;9.80;9.40;;;;;31.79;48.22;101115.19;5148815;27;8821;-87
2021/06/23 08:12:01;;;;;;;;;12.00;9.00;;;;;32.02;48.16;101106.09;5147165;27;9694;-85
2021/06/23 08:14:56;;;;;;;;;10.60;10.20;;;;;32.23;48.19;101109.38;5119842;27;8811;-86
2021/06/23 08:17:33;;;;;;;;;12.20;10.80;;;;;32.55;47.61;101103.13;5117815;27;8896;-84
2021/06/23 08:20:29;;;;;;;;;11.20;10.80;;;;;32.57;47.59;101096.91;5134753;27;8855;-84
2021/06/23 08:23:25;;;;;;;;;11.00;10.00;;;;;32.40;48.22;101098.47;5133608;27;9023;-86
2021/06/23 08:26:20;;;;;;;;;13.40;12.40;;;;;32.54;46.45;101110.13;5119631;27;8831;-86
2021/06/23 08:29:16;;;;;;;;;13.00;12.40;;;;;32.30;48.98;101107.00;5134736;27;8815;-79
2021/06/23 08:32:12;;;;;;;;;11.40;10.40;;;;;31.82;51.77;101108.53;5149420;27;8825;-82
2021/06/23 08:35:09;;;;;;;;;13.80;11.20;;;;;31.73;51.87;101119.88;5140611;27;8828;-83
2021/06/23 08:38:04;;;;;;;;;16.40;10.40;;;;;31.51;53.24;101106.41;5153709;27;9525;-78
2021/06/23 08:41:02;;;;;;;;;13.80;13.40;;;;;31.35;53.26;101125.81;5151989;27;8894;-75
2021/06/23 08:43:58;;;;;;;;;12.20;12.00;;;;;31.15;54.40;101126.13;5153712;27;8829;-76
2021/06/23 08:46:57;;;;;;;;;16.40;12.20;;;;;30.32;56.29;101128.09;5153843;27;9225;-82
2021/06/23 08:49:53;;;;;;;;;13.20;10.40;;;;;30.23;57.76;101130.06;5143996;27;8949;-77
2021/06/23 08:52:49;;;;;;;;;11.60;10.40;;;;;30.48;55.50;101126.38;5132138;27;8827;-78
2021/06/23 08:55:45;;;;;;;;;13.80;13.80;;;;;30.03;56.03;101127.38;5137027;27;8821;-81
2021/06/23 08:58:42;;;;;;;;;10.80;10.80;;;;;30.06;57.21;101140.72;5132881;27;8819;-79
2021/06/23 09:01:26;;;;;;;;;10.80;10.80;;;;;30.33;55.33;101129.69;5133996;27;8847;-76
2021/06/23 09:04:25;;;;;;;;;13.20;12.60;;;;;30.67;55.24;101136.75;5142045;27;8829;-77
2021/06/23 09:07:35;;;;;;;;;18.00;13.80;;;;;31.13;54.43;101138.03;5131702;27;8876;-74
2021/06/23 09:10:34;;;;;;;;;19.60;18.00;;;;;31.70;53.22;101135.94;5132670;27;8882;-72
2021/06/23 09:13:29;;;;;;;;;8.60;8.60;;;;;31.06;54.89;101132.56;5132547;27;8842;-79
2021/06/23 09:16:25;;;;;;;;;13.20;12.20;;;;;31.51;54.01;101137.84;5133451;27;8847;-73
2021/06/23 09:19:29;;;;;;;;;12.40;11.00;;;;;32.13;52.57;101130.59;5132314;27;9649;-74
2021/06/23 09:22:50;;;;;;;;;9.80;9.80;;;;;30.71;54.84;101135.38;5132556;27;8875;-76
2021/06/23 09:25:46;;;;;;;;;14.40;14.00;;;;;30.99;55.82;101139.31;5133114;27;8866;-81
2021/06/23 09:28:43;;;;;;;;;14.40;14.00;;;;;30.87;55.56;101134.44;5136885;27;8835;-76
2021/06/23 09:31:12;;;;;;;;;10.80;10.80;;;;;30.79;55.73;101138.78;5141897;27;8918;-76
2021/06/23 09:34:20;;;;;;;;;16.40;14.80;;;;;31.40;54.60;101136.66;5136726;27;9576;-72
2021/06/23 09:37:30;;;;;;;;;12.20;11.40;;;;;30.76;56.44;101136.88;5136655;27;8854;-74
2021/06/23 09:40:29;;;;;;;;;14.60;14.60;;;;;30.68;56.86;101127.75;5122891;27;8838;-76
2021/06/23 09:43:35;;;;;;;;;14.80;13.40;;;;;31.56;55.12;101122.16;5140820;27;8851;-72
2021/06/23 09:46:38;;;;;;;;;11.60;11.60;;;;;31.86;54.33;101114.13;5157107;27;9588;-73
2021/06/23 09:49:42;;;;;;;;;13.60;13.60;;;;;32.12;53.20;101112.63;5157506;27;8817;-77
2021/06/23 09:52:35;;;;;;;;;23.80;23.60;;;;;32.32;53.36;101100.84;5131449;27;8862;-73
2021/06/23 09:55:38;;;;;;;;;14.40;14.40;;;;;32.49;52.44;101098.50;5144940;27;8823;-72
2021/06/23 09:58:38;;;;;;;;;11.60;10.80;;;;;32.78;52.06;101092.34;5145064;27;8825;-75
2021/06/23 10:01:38;;;;;;;;;11.60;11.60;;;;;32.76;51.87;101107.13;5144245;27;8827;-71
2021/06/23 10:04:35;;;;;;;;;13.20;13.20;;;;;32.91;51.62;101102.41;5136732;27;8839;-73
2021/06/23 10:07:42;;;;;;;;;11.60;11.60;;;;;33.30;50.50;101099.84;5148785;27;8817;-73
2021/06/23 10:10:43;;;;;;;;;12.00;11.80;;;;;33.41;50.42;101105.91;5156688;27;8913;-76
2021/06/23 10:13:38;;;;;;;;;14.80;14.20;;;;;32.83;51.36;101098.25;5156601;27;9629;-78
2021/06/23 10:16:35;;;;;;;;;12.60;12.00;;;;;32.62;51.83;101087.72;5156370;27;9496;-75
2021/06/23 10:19:31;;;;;;;;;9.20;9.20;;;;;32.97;51.72;101099.69;5155934;27;8820;-74
2021/06/23 10:22:28;;;;;;;;;11.80;11.60;;;;;33.12;50.51;101105.59;5156098;27;8821;-75
2021/06/23 10:25:23;;;;;;;;;15.00;14.20;;;;;33.11;50.42;101104.78;5156321;27;8829;-73
2021/06/23 10:28:17;;;;;;;;;11.40;11.20;;;;;33.00;51.25;101103.69;5156018;27;8857;-76
2021/06/23 10:31:14;;;;;;;;;11.60;10.60;;;;;33.36;50.40;101106.53;5156449;27;8860;-76
2021/06/23 10:34:09;;;;;;;;;12.20;11.20;;;;;33.68;49.41;101098.53;5143426;27;8823;-73
2021/06/23 10:37:06;;;;;;;;;11.60;11.60;;;;;32.45;52.12;101097.84;5135402;27;8851;-76
2021/06/23 10:40:05;;;;;;;;;17.20;15.40;;;;;33.01;51.11;101096.69;5149261;27;8910;-76
2021/06/23 10:42:49;;;;;;;;;8.60;8.60;;;;;32.16;52.94;101101.88;5119745;27;8843;-75
2021/06/23 10:45:46;;;;;;;;;13.20;13.20;;;;;32.59;51.75;101097.25;5140285;27;8847;-79
2021/06/23 10:48:27;;;;;;;;;12.60;12.60;;;;;32.67;52.65;101092.00;5135446;27;8855;-75
2021/06/23 10:51:28;;;;;;;;;14.20;12.00;;;;;32.78;50.99;101101.72;5135247;27;8835;-77
2021/06/23 10:54:32;;;;;;;;;13.80;13.80;;;;;33.39;51.03;101093.34;5126000;27;8813;-75
2021/06/23 10:57:48;;;;;;;;;12.80;11.80;;;;;33.22;51.19;101094.94;5156459;27;8829;-79
2021/06/23 11:00:24;;;;;;;;;10.80;10.00;;;;;33.65;50.83;101106.00;5140508;27;8887;-79
2021/06/23 11:03:06;;;;;;;;;13.00;12.60;;;;;32.80;52.27;101102.03;5156994;27;8841;-78
